Latest Weather Observations for Richmond

IDN60801

Issued at 1:32 am EDT Monday 8 February 2016 (issued every 30 minutes, with the page automatically refreshed every 10 minutes)

About weather observations | Map of weather stations | Latest weather observations for NSW | Other Formats
Station Details ID: 067105 Name: RICHMOND RAAF Lat: -33.60 Lon: 150.78 Height: 19.0 m
Data from the previous 72 hours. | See also: Recent months at Richmond
Date/Time
EDT
Temp
°C
App
Temp
°C
Dew
Point
Rel
Hum
%
Delta-T
°C
Wind Press
QNH
hPa
Press
MSL
hPa
Rain
since 9 am
mm
Dir
 
Spd
km/h
Gust
km/h
Spd
kts
Gust
kts
08/01:30am 18.7 21.2 17.2 91 0.9 CALM 0 0 0 0 1018.3 1018.2 0.0
08/01:27am 18.8 21.4 17.5 92 0.8 CALM 0 0 0 0 1018.3 1018.2 0.0
08/01:06am 19.1 21.8 17.8 92 0.8 CALM 0 0 0 0 1018.5 1018.4 0.0
08/01:00am 19.0 21.6 17.5 91 0.9 CALM 0 0 0 0 1018.6 1018.5 0.0
08/12:36am 19.5 22.1 17.6 89 1.2 CALM 0 0 0 0 1018.7 1018.6 0.0
08/12:30am 19.9 22.7 17.9 88 1.2 CALM 0 0 0 0 1018.7 1018.6 0.0
08/12:17am 20.2 22.9 17.8 86 1.5 CALM 0 0 0 0 1018.7 1018.6 0.0
08/12:00am 20.7 23.5 17.9 84 1.7 CALM 0 0 0 0 1018.8 1018.7 0.0
 
Date/Time
EDT
Temp
°C
App
Temp
°C
Dew
Point
Rel
Hum
%
Delta-T
°C
Wind Press
QNH
hPa
Press
MSL
hPa
Rain
since 9 am
mm
Dir
 
Spd
km/h
Gust
km/h
Spd
kts
Gust
kts
07/11:30pm 20.9 23.9 18.5 86 1.5 CALM 0 0 0 0 1018.8 1018.7 0.0
07/11:00pm 21.2 24.0 18.0 82 2.0 CALM 0 0 0 0 1018.7 1018.6 0.0
07/10:30pm 21.3 24.1 17.9 81 2.1 CALM 0 0 0 0 1018.6 1018.5 0.0
07/10:00pm 21.2 23.8 17.6 80 2.2 CALM 0 0 0 0 1018.4 1018.3 0.0
07/09:30pm 21.3 22.8 17.5 79 2.3 NE 6 7 3 4 1018.2 1018.1 0.0
07/09:00pm 21.8 22.9 17.2 75 2.8 ENE 7 11 4 6 1017.9 1017.8 0.0
07/08:30pm 22.2 22.8 16.7 71 3.4 ENE 9 13 5 7 1017.4 1017.3 0.0
07/08:00pm 23.2 23.4 16.7 67 4.0 E 11 15 6 8 1017.1 1017.0 0.0
07/07:30pm 24.0 23.7 16.5 63 4.6 E 13 20 7 11 1016.6 1016.5 0.0
07/07:00pm 24.9 22.8 16.1 58 5.4 ESE 22 26 12 14 1016.2 1016.1 0.0
07/06:30pm 26.4 25.0 16.6 55 6.1 ESE 19 24 10 13 1015.9 1015.8 0.0
07/06:00pm 26.6 26.4 16.8 55 6.1 E 13 20 7 11 1015.6 1015.5 0.0
07/05:30pm 27.1 26.5 16.7 53 6.5 E 15 24 8 13 1015.4 1015.3 0.0
07/05:00pm 26.5 25.4 16.4 53 6.2 E 17 24 9 13 1015.3 1015.2 0.0
07/04:30pm 27.4 25.9 16.4 51 6.8 E 19 26 10 14 1015.2 1015.1 0.0
07/04:00pm 27.6 27.4 17.7 54 6.3 ESE 15 24 8 13 1015.3 1015.2 0.0
07/03:30pm 26.9 26.1 17.1 55 6.1 SE 17 22 9 12 1015.6 1015.5 0.0
07/03:00pm 26.6 26.6 16.2 52 6.4 ESE 11 22 6 12 1015.8 1015.7 0.0
07/02:30pm 27.4 27.3 17.0 53 6.5 ENE 13 20 7 11 1015.9 1015.8 0.0
07/02:00pm 27.2 27.9 16.2 51 6.8 ENE 7 13 4 7 1016.2 1016.1 0.0
07/01:30pm 26.2 26.9 16.2 54 6.1 ESE 7 17 4 9 1016.5 1016.4 0.0
07/01:00pm 26.4 26.7 16.1 53 6.3 E 9 17 5 9 1016.9 1016.8 0.0
07/12:30pm 26.2 26.2 17.3 58 5.6 SE 13 20 7 11 1017.2 1017.1 0.0
07/12:00pm 25.4 26.5 16.5 58 5.5 SW 6 13 3 7 1017.4 1017.3 0.0
07/11:30am 24.4 25.2 17.4 65 4.4 SW 9 13 5 7 1017.8 1017.7 0.0
07/11:00am 23.6 24.4 17.3 67 3.9 SSW 9 15 5 8 1018.1 1018.0 0.0
07/10:30am 23.6 25.2 17.8 70 3.6 WSW 6 9 3 5 1018.2 1018.1 0.0
07/10:00am 22.7 23.6 17.6 73 3.2 SSW 9 15 5 8 1018.3 1018.2 0.0
07/09:30am 21.5 22.6 18.1 81 2.1 SW 9 13 5 7 1018.4 1018.3 0.0
07/09:00am 20.5 22.2 18.1 86 1.5 SSW 6 7 3 4 1018.4 1018.3 0.6
07/08:30am 19.4 20.8 17.7 90 1.0 SW 7 11 4 6 1018.3 1018.2 0.6
07/08:19am 19.1 20.3 17.4 90 1.0 SW 7 11 4 6 1018.2 1018.1 0.6
07/08:00am 18.5 21.0 17.3 93 0.7 CALM 0 4 0 2 1018.1 1018.0 0.6
07/07:30am 17.7 20.3 17.4 98 0.2 CALM 0 0 0 0 1017.8 1017.7 0.6
07/07:00am 16.9 19.1 16.6 98 0.2 CALM 0 0 0 0 1017.6 1017.5 0.6
07/06:30am 16.6 18.6 16.1 97 0.3 CALM 0 0 0 0 1017.4 1017.3 0.6
07/06:00am 16.6 18.6 16.1 97 0.3 CALM 0 0 0 0 1017.1 1017.0 0.6
07/05:30am 16.6 18.6 16.1 97 0.3 CALM 0 0 0 0 1016.9 1016.8 0.6
07/05:00am 16.8 18.9 16.2 96 0.4 CALM 0 0 0 0 1016.7 1016.6 0.6
07/04:30am 16.9 18.1 15.9 94 0.6 S 4 6 2 3 1016.8 1016.7 0.6
07/04:00am 17.2 19.4 16.4 95 0.5 CALM 0 0 0 0 1016.9 1016.8 0.6
07/03:30am 17.0 18.2 16.0 94 0.6 WSW 4 6 2 3 1017.2 1017.1 0.6
07/03:00am 17.0 18.0 16.4 96 0.4 WSW 6 7 3 4 1017.1 1017.0 0.6
07/02:30am 16.7 17.4 16.1 96 0.4 WNW 7 7 4 4 1017.4 1017.3 0.6
07/02:00am 16.8 17.6 15.8 94 0.6 NW 6 9 3 5 1017.6 1017.5 0.6
07/01:30am 17.7 18.6 16.2 91 0.9 SW 6 7 3 4 1017.4 1017.3 0.6
07/01:00am 17.5 18.2 15.7 89 1.1 SSW 6 7 3 4 1017.8 1017.7 0.6
07/12:33am 18.0 18.6 15.8 87 1.3 SW 7 9 4 5 1018.1 1018.0 0.6
07/12:30am 18.0 18.2 15.8 87 1.3 SW 9 9 5 5 1018.1 1018.0 0.6
07/12:05am 18.4 18.7 16.0 86 1.4 SW 9 11 5 6 1018.3 1018.2 0.6
07/12:00am 18.5 18.8 16.1 86 1.4 SW 9 11 5 6 1018.3 1018.2 0.6
 
Date/Time
EDT
Temp
°C
App
Temp
°C
Dew
Point
Rel
Hum
%
Delta-T
°C
Wind Press
QNH
hPa
Press
MSL
hPa
Rain
since 9 am
mm
Dir
 
Spd
km/h
Gust
km/h
Spd
kts
Gust
kts
06/11:30pm 18.7 19.0 15.9 84 1.7 SW 9 13 5 7 1018.4 1018.3 0.6
06/11:00pm 18.6 18.8 15.8 84 1.7 SW 9 11 5 6 1018.4 1018.3 0.6
06/10:30pm 19.3 19.6 16.0 81 2.0 SW 9 11 5 6 1018.2 1018.1 0.6
06/10:00pm 18.9 19.2 16.0 83 1.7 SW 9 11 5 6 1018.1 1018.0 0.6
06/09:30pm 20.3 20.8 15.5 74 2.8 ESE 7 11 4 6 1018.0 1017.9 0.6
06/09:00pm 21.0 20.5 15.8 72 3.1 ESE 13 17 7 9 1017.9 1017.8 0.6
06/08:30pm 21.3 21.1 15.6 70 3.4 ESE 11 15 6 8 1017.7 1017.6 0.6
06/08:00pm 21.9 21.2 15.3 66 3.9 ESE 13 17 7 9 1017.4 1017.3 0.6
06/07:30pm 22.8 21.2 15.1 62 4.6 ESE 17 22 9 12 1017.0 1016.9 0.6
06/07:00pm 23.7 21.4 14.7 57 5.3 ESE 20 24 11 13 1016.6 1016.5 0.6
06/06:30pm 23.9 20.8 14.6 56 5.5 ESE 24 32 13 17 1016.3 1016.2 0.6
06/06:00pm 24.3 21.0 14.1 53 6.0 ESE 24 32 13 17 1015.9 1015.8 0.6
06/05:30pm 24.7 21.8 13.9 51 6.4 ESE 22 32 12 17 1015.6 1015.5 0.6
06/05:00pm 25.1 21.8 14.9 53 6.1 ESE 26 33 14 18 1015.6 1015.5 0.6
06/04:30pm 25.6 23.2 15.3 53 6.2 ESE 22 32 12 17 1015.7 1015.6 0.6
06/04:00pm 25.4 22.1 15.1 53 6.2 ESE 26 35 14 19 1015.8 1015.7 0.6
06/03:30pm 25.7 24.3 16.5 56 5.7 SE 19 24 10 13 1016.0 1015.9 0.6
06/03:00pm 24.3 25.0 18.9 72 3.4 SW 13 19 7 10 1016.3 1016.2 0.6
06/02:30pm 24.6 24.9 19.7 74 3.2 SSW 17 22 9 12 1016.7 1016.6 0.6
06/02:00pm 23.0 23.0 19.0 78 2.5 SW 17 22 9 12 1017.1 1017.0 0.6
06/01:30pm 22.3 21.9 18.9 81 2.1 SW 19 26 10 14 1017.3 1017.2 0.4
06/01:00pm 22.1 22.2 19.1 83 1.9 SSW 17 20 9 11 1017.6 1017.5 0.4
06/12:49pm 22.1 23.3 20.0 88 1.3 SW 13 17 7 9 1017.8 1017.7 0.4
06/12:30pm 20.8 21.4 18.6 87 1.4 SSW 13 19 7 10 1018.0 1017.9 0.4
06/12:28pm 20.8 20.8 18.2 85 1.6 SSW 15 20 8 11 1018.0 1017.9 0.4
06/12:00pm 22.2 21.3 18.2 78 2.5 SW 20 28 11 15 1018.0 1017.9 0.2
06/11:30am 22.1 21.2 18.3 79 2.4 SSW 20 24 11 13 1018.3 1018.2 0.2
06/11:00am 21.1 20.4 17.3 79 2.3 SSW 17 24 9 13 1018.6 1018.5 0.2
06/10:30am 21.1 21.8 17.9 82 2.0 SW 11 17 6 9 1018.7 1018.6 0.2
06/10:00am 20.1 21.3 18.2 89 1.2 SW 9 13 5 7 1018.9 1018.8 0.2
06/09:55am 19.5 20.4 17.6 89 1.2 SSW 9 11 5 6 1018.9 1018.8 0.2
06/09:37am 18.7 19.4 17.0 90 1.0 SSW 9 13 5 7 1018.9 1018.8 0.2
06/09:30am 19.1 19.9 17.4 90 1.0 SSW 9 13 5 7 1019.0 1018.9 0.0
06/09:19am 19.0 19.8 17.3 90 1.0 SSW 9 11 5 6 1018.9 1018.8 0.0
06/09:00am 18.5 18.8 15.9 85 1.5 SSE 9 15 5 8 1018.9 1018.8 0.0
06/08:33am 20.0 18.9 15.2 74 2.8 SSW 15 20 8 11 1018.4 1018.3 0.0
06/08:30am 19.9 18.6 14.9 73 2.9 SSW 15 20 8 11 1018.4 1018.3 0.0
06/08:24am 20.0 19.2 15.0 73 2.9 SSW 13 19 7 10 1018.2 1018.1 0.0
06/08:08am 19.7 19.3 15.1 75 2.7 SSW 11 15 6 8 1018.2 1018.1 0.0
06/08:04am 19.6 18.8 15.0 75 2.7 SSW 13 15 7 8 1018.1 1018.0 0.0
06/08:00am 19.6 18.8 15.0 75 2.7 SSW 13 19 7 10 1018.0 1017.9 0.0
06/07:33am 19.2 18.3 14.9 76 2.5 SSW 13 17 7 9 1017.9 1017.8 0.0
06/07:30am 19.2 18.4 15.1 77 2.4 SSW 13 17 7 9 1017.8 1017.7 0.0
06/07:00am 18.7 17.8 14.8 78 2.3 SW 13 17 7 9 1017.5 1017.4 0.0
06/06:30am 18.5 18.3 14.6 78 2.3 SW 9 15 5 8 1017.4 1017.3 0.0
06/06:00am 18.1 17.8 14.4 79 2.1 SW 9 13 5 7 1017.2 1017.1 0.0
06/05:30am 17.8 17.5 14.3 80 2.0 SW 9 13 5 7 1017.0 1016.9 0.0
06/05:00am 18.0 17.3 14.3 79 2.1 SW 11 15 6 8 1017.1 1017.0 0.0
06/04:30am 17.8 17.1 14.3 80 2.0 SW 11 13 6 7 1017.1 1017.0 0.0
06/04:00am 18.0 16.8 14.1 78 2.2 SW 13 19 7 10 1017.1 1017.0 0.0
06/03:30am 18.2 17.1 14.3 78 2.2 SW 13 17 7 9 1017.2 1017.1 0.0
06/03:00am 18.5 17.6 14.8 79 2.1 SW 13 17 7 9 1017.3 1017.2 0.0
06/02:30am 18.6 18.2 15.1 80 2.0 SSW 11 13 6 7 1017.4 1017.3 0.0
06/02:00am 19.0 19.0 15.3 79 2.2 SW 9 13 5 7 1017.6 1017.5 0.0
06/01:30am 18.9 18.9 15.2 79 2.2 SW 9 13 5 7 1017.8 1017.7 0.0
06/01:17am 19.1 18.8 15.4 79 2.2 SSW 11 15 6 8 1018.0 1017.9 0.0
06/01:02am 19.2 18.8 15.3 78 2.3 SSW 11 15 6 8 1018.1 1018.0 0.0
06/01:00am 19.2 18.8 15.3 78 2.3 S 11 15 6 8 1018.1 1018.0 0.0
06/12:44am 19.6 19.3 15.5 77 2.4 SSW 11 13 6 7 1018.3 1018.2 0.0
06/12:30am 19.5 19.3 15.6 78 2.3 SSW 11 15 6 8 1018.4 1018.3 0.0
06/12:22am 19.6 19.9 15.9 79 2.2 SSW 9 13 5 7 1018.4 1018.3 0.0
06/12:00am 19.8 19.7 15.9 78 2.3 SW 11 13 6 7 1018.5 1018.4 0.0
 
Date/Time
EDT
Temp
°C
App
Temp
°C
Dew
Point
Rel
Hum
%
Delta-T
°C
Wind Press
QNH
hPa
Press
MSL
hPa
Rain
since 9 am
mm
Dir
 
Spd
km/h
Gust
km/h
Spd
kts
Gust
kts
05/11:30pm 19.8 20.4 15.9 78 2.3 SW 7 9 4 5 1018.8 1018.7 0.0
05/11:00pm 19.9 19.6 15.5 76 2.6 SSW 11 15 6 8 1018.7 1018.6 0.0
05/10:30pm 20.5 20.7 15.7 74 2.9 SSW 9 13 5 7 1018.8 1018.7 0.0
05/10:00pm 21.2 21.0 15.7 71 3.3 SSE 11 17 6 9 1018.9 1018.8 0.0
05/09:30pm 21.2 20.2 15.5 70 3.4 S 15 22 8 12 1018.7 1018.6 0.0
05/09:00pm 21.0 19.4 14.9 68 3.6 S 17 22 9 12 1018.5 1018.4 0.0
05/08:30pm 21.6 19.2 14.5 64 4.2 SSE 20 32 11 17 1018.2 1018.1 0.0
05/08:00pm 22.0 19.4 13.9 60 4.7 SSE 20 30 11 16 1018.0 1017.9 0.0
05/07:30pm 22.4 19.3 13.5 57 5.1 SSE 22 33 12 18 1017.8 1017.7 0.0
05/07:00pm 22.9 20.1 13.1 54 5.6 SSE 20 32 11 17 1017.4 1017.3 0.0
05/06:30pm 24.2 21.3 15.1 56 5.5 SSE 24 35 13 19 1017.1 1017.0 0.0
05/06:00pm 23.3 19.8 14.6 58 5.1 SSE 26 33 14 18 1016.9 1016.8 0.0
05/05:30pm 23.7 21.3 14.4 56 5.5 SSE 20 30 11 16 1016.9 1016.8 0.0
05/05:14pm 23.5 19.5 14.2 56 5.5 SSE 28 46 15 25 1017.1 1017.0 0.0
05/05:00pm 24.9 20.5 14.1 51 6.4 SSE 30 41 16 22 1016.9 1016.8 0.0
05/04:30pm 24.5 20.0 13.7 51 6.3 SSE 30 44 16 24 1017.0 1016.9 0.0
05/04:18pm 25.4 21.4 14.2 50 6.6 SSE 28 46 15 25 1017.0 1016.9 0.0
05/04:00pm 24.7 20.9 13.6 50 6.5 SSE 26 41 14 22 1017.1 1017.0 0.0
05/03:30pm 24.9 20.5 14.1 51 6.4 SSE 30 43 16 23 1017.3 1017.2 0.0
05/03:11pm 24.4 20.2 13.6 51 6.3 SSE 28 48 15 26 1017.3 1017.2 0.0
05/03:00pm 25.2 21.1 13.7 49 6.8 SSE 28 39 15 21 1017.3 1017.2 0.0
05/02:36pm 24.8 20.6 13.4 49 6.7 SSE 28 46 15 25 1017.5 1017.4 0.0
05/02:30pm 26.1 22.7 15.8 53 6.3 SSE 28 39 15 21 1017.5 1017.4 0.0
05/02:00pm 24.2 19.2 14.0 53 6.0 SSE 33 44 18 24 1017.6 1017.5 0.0
05/01:30pm 24.0 20.9 13.5 52 6.1 SSE 22 33 12 18 1017.7 1017.6 0.0
05/01:00pm 23.5 20.5 13.7 54 5.7 SSE 22 32 12 17 1017.9 1017.8 0.0
05/12:30pm 23.0 19.3 13.8 56 5.4 S 26 37 14 20 1018.1 1018.0 0.0
05/12:00pm 23.2 19.7 13.4 54 5.7 SSE 24 37 13 20 1018.2 1018.1 0.0
05/11:30am 22.4 20.5 15.3 64 4.2 S 19 26 10 14 1018.4 1018.3 0.0
05/11:00am 22.7 20.6 14.8 61 4.7 SSE 19 30 10 16 1018.5 1018.4 0.0
05/10:30am 21.3 19.7 14.9 67 3.8 SSE 17 24 9 13 1018.5 1018.4 0.0
05/10:00am 20.7 18.1 14.8 69 3.5 SSE 22 32 12 17 1018.6 1018.5 0.0
05/09:30am 21.0 18.8 14.9 68 3.6 S 20 30 11 16 1018.3 1018.2 0.0
05/09:00am 19.9 17.5 14.3 70 3.2 S 20 26 11 14 1018.1 1018.0 0.0
05/08:30am 20.8 18.8 14.0 65 3.9 S 17 28 9 15 1017.8 1017.7 0.0
05/08:00am 20.3 18.3 14.0 67 3.6 SSW 17 24 9 13 1017.2 1017.1 0.0
05/07:30am 19.1 16.5 13.9 72 3.0 SSW 20 26 11 14 1016.8 1016.7 0.0
05/07:00am 18.8 17.1 13.6 72 3.0 SSW 15 20 8 11 1016.4 1016.3 0.0
05/06:30am 18.7 16.5 13.3 71 3.1 SSW 17 24 9 13 1015.9 1015.8 0.0
05/06:00am 18.7 15.8 12.9 69 3.3 SSW 20 24 11 13 1015.5 1015.4 0.0
05/05:30am 19.0 17.5 13.0 68 3.4 SSW 13 22 7 12 1015.3 1015.2 0.0
05/05:00am 19.0 17.5 13.2 69 3.3 SSW 13 19 7 10 1015.2 1015.1 0.0
05/04:30am 19.0 17.2 13.2 69 3.3 SSW 15 22 8 12 1014.9 1014.8 0.0
05/04:00am 18.9 16.7 13.3 70 3.2 SSW 17 22 9 12 1014.8 1014.7 0.0
05/03:30am 18.8 17.5 13.6 72 3.0 SSW 13 20 7 11 1014.9 1014.8 0.0
05/03:00am 18.6 17.4 14.1 75 2.6 SSW 13 19 7 10 1015.2 1015.1 0.0
05/02:30am 18.6 17.4 14.1 75 2.6 SSW 13 17 7 9 1015.5 1015.4 0.0
05/02:00am 18.5 17.7 14.0 75 2.6 SSW 11 15 6 8 1015.8 1015.7 0.0

Other Formats:

Comma delimited format used in spreadsheet applications
http://www.bom.gov.au/fwo/IDN60801/IDN60801.95753.axf

JavaScript Object Notation format (JSON) in row-major order
http://www.bom.gov.au/fwo/IDN60801/IDN60801.95753.json